ローマ・レオナルド・ダ・ビンチ国際空港の過去48時間の天気

ローマ・レオナルド・ダ・ビンチ国際空港 (Roma Fiumicino)

現在時刻: 2/21 02:23 CET (2/21 01:23 UTC) 以下の時間は現地時間です。

過去48時間のMETAR気象情報
時間 風向 風速(m/s) 視程 気温(℃) 湿度(%) 気圧(hPa) 天気現象
21 01:50 北東 1 10km以上 4 93 1026
21 01:20 北北東 1 10km以上 5 93 1026
21 00:50 北北東 1 10km以上 5 93 1026
21 00:20 東北東 2 10km以上 5 87 1026
20 23:50 3 10km以上 6 87 1026
20 23:20 1 10km以上 7 81 1026
20 22:50 北北東 1 10km以上 7 81 1026
20 22:20 2 10km以上 7 81 1026
20 21:50 2 10km以上 7 81 1025
20 21:20 北西 2 10km以上 8 81 1025
20 20:50 北西 3 10km以上 8 81 1025
20 20:20 北北西 2 10km以上 9 76 1025
20 19:50 北西 3 10km以上 10 76 1025
20 19:20 北西 3 10km以上 10 76 1025
20 18:50 西北西 3 10km以上 11 67 1024
20 18:20 西北西 3 10km以上 11 67 1024
20 17:50 西北西 3 10km以上 12 62 1024
20 17:20 西北西 4 10km以上 13 58 1024
20 16:50 西北西 4 10km以上 13 58 1024
20 16:20 西 5 10km以上 13 58 1024
20 15:50 西 4 10km以上 13 58 1024
20 15:20 西 4 10km以上 13 62 1024
20 14:50 西南西 5 10km以上 14 59 1024
20 14:20 西 5 10km以上 14 55 1024
20 13:50 西 4 10km以上 14 51 1024
20 13:20 不定 1 10km以上 15 48 1024
20 12:50 北西 3 10km以上 14 51 1024
20 12:20 不定 2 10km以上 14 51 1025
20 11:50 北東 3 10km以上 13 54 1025
20 11:20 東北東 4 10km以上 12 58 1025
20 10:50 東北東 3 10km以上 11 62 1025
20 10:20 東北東 3 10km以上 10 66 1025
20 09:50 東北東 2 9000m 10 71 1025
20 09:20 東北東 3 8000m 8 76 1025
20 08:50 東北東 3 8000m 6 87 1025
20 08:20 東北東 3 8000m 6 81 1025
20 07:50 3 10km以上 4 93 1024
20 07:20 4 10km以上 4 93 1024
20 06:50 3 7000m 4 87 1023
20 06:20 2 7000m 4 87 1023
20 05:50 3 7000m 4 87 1023
20 05:20 東北東 3 7000m 4 87 1023
20 04:50 東北東 2 7000m 4 93 1024
20 04:20 東北東 2 7000m 4 93 1023
20 03:50 東北東 3 7000m 3 93 1024
20 03:20 2 7000m 3 93 1024
20 02:50 1 7000m 3 87 1024
20 02:20 2 8000m 3 87 1024
20 01:50 2 9000m 3 87 1024
20 01:20 2 9000m 3 93 1024
20 00:50 2 9000m 3 93 1024
20 00:20 2 10km以上 3 93 1024
19 23:50 2 10km以上 4 87 1024
19 23:20 2 10km以上 4 87 1024
19 22:50 不定 1 10km以上 4 87 1024
19 22:20 1 10km以上 3 93 1024
19 21:50 不定 1 10km以上 5 81 1024
19 21:20 北東 1 10km以上 6 81 1024
19 20:50 北北東 1 10km以上 6 81 1023
19 20:20 1 10km以上 6 81 1023
19 19:50 不定 1 10km以上 8 76 1023
19 19:20 1 10km以上 8 76 1023
19 18:50 1 10km以上 9 71 1023
19 18:20 北北西 2 10km以上 10 66 1023
19 17:50 北西 2 10km以上 11 62 1023
19 17:20 西 3 10km以上 12 54 1023
19 16:50 西北西 3 10km以上 13 54 1023
19 16:20 西北西 2 10km以上 13 51 1023
19 15:50 不定 1 10km以上 13 51 1023
19 15:20 南南西 3 10km以上 13 54 1023
19 14:50 西南西 3 10km以上 12 58 1023
19 14:20 西南西 3 10km以上 12 62 1024
19 13:50 西南西 3 10km以上 12 58 1024
19 13:20 2 10km以上 12 58 1024
19 12:50 2 10km以上 12 62 1024
19 12:20 東北東 2 10km以上 12 58 1025
19 11:50 不定 1 10km以上 12 58 1025
19 11:20 不定 1 10km以上 12 58 1025
19 10:50 東北東 3 10km以上 12 58 1025
19 10:20 東北東 3 10km以上 11 67 1025
19 09:50 2 10km以上 11 71 1024
19 09:20 東南東 2 9000m 10 82 1024
19 08:50 北東 2 9000m 10 82 1024
19 08:20 東北東 2 9000m 9 76 1024
19 07:50 2 8000m 9 87 1024
19 07:20 2 8000m 9 87 1024
19 06:50 不定 1 8000m 9 87 1023
19 06:20 東北東 2 9000m 9 81 1024
19 05:50 2 9000m 9 81 1023
19 05:20 2 10km以上 9 81 1023
19 04:50 不定 1 9000m 9 81 1023
19 04:20 2 10km以上 9 81 1023
19 03:50 不定 1 10km以上 9 81 1024
19 03:20 不定 1 6000m 9 87 1024
19 02:50 不定 2 7000m 9 87 1024
LIRF 210050Z 04002KT CAVOK 04/03 Q1026 NOSIG
LIRF 210020Z 03001KT CAVOK 05/04 Q1026 NOSIG
LIRF 202350Z 03002KT CAVOK 05/04 Q1026 NOSIG
LIRF 202320Z 06003KT CAVOK 05/03 Q1026 NOSIG
LIRF 202250Z 09005KT CAVOK 06/04 Q1026 NOSIG
LIRF 202220Z 08002KT CAVOK 07/04 Q1026 NOSIG
LIRF 202150Z 03002KT CAVOK 07/04 Q1026 NOSIG
LIRF 202120Z 36003KT CAVOK 07/04 Q1026 NOSIG
LIRF 202050Z 35004KT CAVOK 07/04 Q1025 NOSIG
LIRF 202020Z 32004KT CAVOK 08/05 Q1025 NOSIG
LIRF 201950Z 32005KT CAVOK 08/05 Q1025 NOSIG
LIRF 201920Z 34004KT CAVOK 09/05 Q1025 NOSIG
LIRF 201850Z 31005KT CAVOK 10/06 Q1025 NOSIG
LIRF 201820Z 31006KT CAVOK 10/06 Q1025 NOSIG
LIRF 201750Z 30006KT CAVOK 11/05 Q1024 NOSIG
LIRF 201720Z 29006KT CAVOK 11/05 Q1024 NOSIG
LIRF 201650Z 30006KT CAVOK 12/05 Q1024 NOSIG
LIRF 201620Z 29007KT CAVOK 13/05 Q1024 NOSIG
LIRF 201550Z 29008KT CAVOK 13/05 Q1024 NOSIG
LIRF 201520Z 27009KT CAVOK 13/05 Q1024 NOSIG
LIRF 201450Z 27008KT 240V300 CAVOK 13/05 Q1024 NOSIG
LIRF 201420Z 26008KT 230V290 CAVOK 13/06 Q1024 NOSIG
LIRF 201350Z 25009KT CAVOK 14/06 Q1024 NOSIG
LIRF 201320Z 26010KT 9999 FEW045 14/05 Q1024 NOSIG
LIRF 201250Z 27008KT 250V310 9999 FEW040 14/04 Q1024 NOSIG
LIRF 201220Z VRB02KT 9999 FEW040 15/04 Q1024 NOSIG
LIRF 201150Z 31005KT 230V040 9999 FEW040 14/04 Q1024 NOSIG
LIRF 201120Z VRB04KT CAVOK 14/04 Q1025 NOSIG
LIRF 201050Z 04006KT 360V090 CAVOK 13/04 Q1025 NOSIG
LIRF 201020Z 06007KT 020V090 CAVOK 12/04 Q1025 NOSIG
LIRF 200950Z 06006KT 030V090 CAVOK 11/04 Q1025 NOSIG
LIRF 200920Z 07005KT 040V100 CAVOK 10/04 Q1025 NOSIG
LIRF 200850Z 07004KT 040V130 9000 NSC 10/05 Q1025 NOSIG
LIRF 200820Z 07006KT 8000 NSC 08/04 Q1025 NOSIG
LIRF 200750Z 07006KT 8000 NSC 06/04 Q1025 NOSIG
LIRF 200720Z 07006KT 8000 FEW045 06/03 Q1025 NOSIG
LIRF 200650Z 09006KT 9999 SCT045 04/03 Q1024 NOSIG
LIRF 200620Z 09007KT 9999 SCT045 04/03 Q1024 NOSIG
LIRF 200550Z 08006KT 7000 SCT043 04/02 Q1023 NOSIG
LIRF 200520Z 08004KT 7000 SCT043 04/02 Q1023 NOSIG
LIRF 200450Z 09006KT 7000 SCT042 04/02 Q1023 NOSIG
LIRF 200420Z 06006KT 7000 SCT040 04/02 Q1023 NOSIG
LIRF 200350Z 06003KT 7000 BKN040 04/03 Q1024 NOSIG
LIRF 200320Z 07004KT 7000 BKN040 04/03 Q1023 NOSIG
LIRF 200250Z 07005KT 7000 BKN040 03/02 Q1024 NOSIG
LIRF 200220Z 08003KT 7000 BKN040 03/02 Q1024 NOSIG
LIRF 200150Z 09002KT 7000 SCT040 03/01 Q1024 NOSIG
LIRF 200120Z 09004KT 8000 NSC 03/01 Q1024 NOSIG
LIRF 200050Z 09004KT 9000 NSC 03/01 Q1024 NOSIG
LIRF 200020Z 08003KT 9000 NSC 03/02 Q1024 NOSIG
LIRF 192350Z 09004KT 9000 NSC 03/02 Q1024 NOSIG
LIRF 192320Z 08004KT CAVOK 03/02 Q1024 NOSIG
LIRF 192250Z 09003KT CAVOK 04/02 Q1024 NOSIG
LIRF 192220Z 09003KT CAVOK 04/02 Q1024 NOSIG
LIRF 192150Z VRB02KT CAVOK 04/02 Q1024 NOSIG
LIRF 192120Z 36002KT CAVOK 03/02 Q1024 NOSIG
LIRF 192050Z VRB01KT 9999 FEW043 05/02 Q1024 NOSIG
LIRF 192020Z 05002KT CAVOK 06/03 Q1024 NOSIG
LIRF 191950Z 03002KT CAVOK 06/03 Q1023 NOSIG
LIRF 191920Z 01002KT CAVOK 06/03 Q1023 NOSIG
LIRF 191850Z VRB02KT CAVOK 08/04 Q1023 NOSIG
LIRF 191820Z 36002KT CAVOK 08/04 Q1023 NOSIG
LIRF 191750Z 35002KT 9999 FEW038 09/04 Q1023 NOSIG
LIRF 191720Z 33003KT 9999 FEW040 10/04 Q1023 NOSIG
LIRF 191650Z 32003KT 300V360 9999 FEW040 11/04 Q1023 NOSIG
LIRF 191620Z 28005KT 250V310 9999 SCT040 12/03 Q1023 NOSIG
LIRF 191550Z 29005KT 9999 SCT040 13/04 Q1023 NOSIG
LIRF 191520Z 29004KT 240V320 9999 SCT040 13/03 Q1023 NOSIG
LIRF 191450Z VRB02KT 9999 SCT040 13/03 Q1023 NOSIG
LIRF 191420Z 20005KT 130V270 9999 SCT040 13/04 Q1023 NOSIG
LIRF 191350Z 24005KT 210V290 9999 SCT038 12/04 Q1023 NOSIG
LIRF 191320Z 25005KT 220V280 9999 BKN037 12/05 Q1024 NOSIG
LIRF 191250Z 24005KT 9999 BKN037 12/04 Q1024 NOSIG
LIRF 191220Z 08003KT 020V160 9999 BKN037 12/04 Q1024 NOSIG
LIRF 191150Z 01003KT 320V070 9999 FEW034 BKN037 12/05 Q1024 NOSIG
LIRF 191120Z 06003KT 040V110 9999 FEW033 BKN038 12/04 Q1025 NOSIG
LIRF 191050Z VRB02KT 9999 BKN037 12/04 Q1025 NOSIG
LIRF 191020Z VRB02KT 9999 BKN037 12/04 Q1025 NOSIG
LIRF 190950Z 06005KT 9999 BKN035 12/04 Q1025 NOSIG
LIRF 190920Z 07005KT 9999 BKN035 11/05 Q1025 NOSIG
LIRF 190850Z 08004KT 9999 BKN035 11/06 Q1024 NOSIG
LIRF 190820Z 11003KT 070V130 9000 BKN035 10/07 Q1024 NOSIG
LIRF 190750Z 04003KT 9000 BKN035 10/07 Q1024 NOSIG
LIRF 190720Z 06003KT 010V160 9000 BKN035 09/05 Q1024 NOSIG
LIRF 190650Z 08004KT 8000 BKN035 09/07 Q1024 NOSIG
LIRF 190620Z 08003KT 8000 BKN030 09/07 Q1024 NOSIG
LIRF 190550Z VRB02KT 8000 BKN033 09/07 Q1023 NOSIG
LIRF 190520Z 07003KT 9000 BKN032 09/06 Q1024 NOSIG
LIRF 190450Z 08003KT 9000 BKN030 09/06 Q1023 NOSIG
LIRF 190420Z 10003KT 9999 BKN030 09/06 Q1023 NOSIG
LIRF 190350Z VRB02KT 9000 BKN030 09/06 Q1023 NOSIG
LIRF 190320Z 09003KT 9999 BKN030 09/06 Q1023 NOSIG
LIRF 190250Z VRB02KT 9999 SCT030 09/06 Q1024 NOSIG
LIRF 190220Z VRB02KT 6000 SCT030 09/07 Q1024 NOSIG
LIRF 190150Z VRB03KT 7000 SCT030 09/07 Q1024 NOSIG